createdAt,value
2023-04-15T00:01:19.812Z,99935.00
2023-04-15T00:03:53.606Z,99931.20
2023-04-15T00:06:22.835Z,99932.80
2023-04-15T00:08:51.273Z,99930.00
2023-04-15T00:11:20.214Z,99925.80
2023-04-15T00:13:48.851Z,99928.00
2023-04-15T00:16:17.485Z,99925.80
2023-04-15T00:18:46.128Z,99920.40
2023-04-15T00:21:14.807Z,99923.00
2023-04-15T00:23:44.232Z,99921.00
2023-04-15T00:26:13.002Z,99918.80
2023-04-15T00:28:42.812Z,99915.60
2023-04-15T00:31:11.344Z,99917.40
2023-04-15T00:33:40.395Z,99920.80
2023-04-15T00:36:09.183Z,99923.60
2023-04-15T00:38:39.813Z,99920.60
2023-04-15T00:41:09.349Z,99915.80
2023-04-15T00:43:38.541Z,99917.80
2023-04-15T00:46:07.886Z,99922.20
2023-04-15T00:48:37.533Z,99923.60
2023-04-15T00:51:07.884Z,99919.80
2023-04-15T00:53:36.440Z,99920.60
2023-04-15T00:56:06.637Z,99922.20
2023-04-15T00:58:35.252Z,99922.80
2023-04-15T01:01:05.276Z,99915.00
2023-04-15T01:03:34.842Z,99913.60
2023-04-15T01:06:04.380Z,99913.80
2023-04-15T01:08:33.281Z,99909.80
2023-04-15T01:11:03.888Z,99914.00
2023-04-15T01:13:35.184Z,99912.00
2023-04-15T01:16:03.995Z,99913.00
2023-04-15T01:18:33.963Z,99912.60
2023-04-15T01:21:04.006Z,99913.60
2023-04-15T01:23:37.086Z,99912.80
2023-04-15T01:26:10.845Z,99913.80
2023-04-15T01:28:40.398Z,99913.80
2023-04-15T01:31:13.798Z,99912.00
2023-04-15T01:33:43.729Z,99908.60
2023-04-15T01:36:12.587Z,99911.80
2023-04-15T01:38:41.575Z,99913.80
2023-04-15T01:41:10.374Z,99912.80
2023-04-15T01:43:39.155Z,99907.80
2023-04-15T01:46:08.563Z,99916.40
2023-04-15T01:48:37.666Z,99915.00
2023-04-15T01:51:06.250Z,99917.00
2023-04-15T01:53:35.057Z,99918.80
2023-04-15T01:56:05.155Z,99915.60
2023-04-15T01:58:33.841Z,99915.00
2023-04-15T02:01:03.326Z,99915.40
2023-04-15T02:03:33.963Z,99918.20
2023-04-15T02:06:02.881Z,99916.40
2023-04-15T02:08:31.458Z,99917.40
2023-04-15T02:11:01.474Z,99915.20
2023-04-15T02:13:30.468Z,99919.60
2023-04-15T02:16:00.180Z,99920.80
2023-04-15T02:18:28.788Z,99920.60
2023-04-15T02:20:59.028Z,99921.00
2023-04-15T02:23:27.790Z,99917.00
2023-04-15T02:25:56.522Z,99922.00
2023-04-15T02:28:25.055Z,99923.00
2023-04-15T02:30:55.069Z,99924.00
2023-04-15T02:33:25.494Z,99921.60
2023-04-15T02:35:54.284Z,99918.60
2023-04-15T02:38:22.872Z,99917.80
2023-04-15T02:40:51.796Z,99917.60
2023-04-15T02:43:20.550Z,99921.60
2023-04-15T02:45:50.425Z,99927.20
2023-04-15T02:48:20.590Z,99923.40
2023-04-15T02:50:49.285Z,99929.60
2023-04-15T02:53:18.675Z,99931.40
2023-04-15T02:55:48.014Z,99935.80
2023-04-15T02:58:16.658Z,99932.40
2023-04-15T03:00:45.348Z,99933.80
2023-04-15T03:03:15.637Z,99933.40
2023-04-15T03:05:44.956Z,99936.60
2023-04-15T03:08:15.313Z,99940.40
2023-04-15T03:10:44.371Z,99941.40
2023-04-15T03:13:13.286Z,99940.00
2023-04-15T03:15:42.258Z,99941.00
2023-04-15T03:18:11.170Z,99943.60
2023-04-15T03:20:40.125Z,99935.20
2023-04-15T03:23:08.857Z,99936.60
2023-04-15T03:25:37.762Z,99939.20
2023-04-15T03:28:07.767Z,99942.80
2023-04-15T03:30:36.453Z,99945.40
2023-04-15T03:33:05.154Z,99941.60
2023-04-15T03:35:35.053Z,99945.40
2023-04-15T03:38:03.634Z,99944.00
2023-04-15T03:40:32.432Z,99941.80
2023-04-15T03:43:01.220Z,99932.60
2023-04-15T03:45:29.706Z,99933.00
2023-04-15T03:48:11.269Z,99935.80
2023-04-15T03:50:46.355Z,99941.60
2023-04-15T03:53:16.289Z,99932.20
2023-04-15T03:55:45.237Z,99935.60
2023-04-15T03:58:13.926Z,99936.20
2023-04-15T04:00:42.921Z,99940.00
2023-04-15T04:03:12.359Z,99934.80
2023-04-15T04:05:41.928Z,99935.00
2023-04-15T04:08:11.700Z,99941.60
2023-04-15T04:10:40.650Z,99938.80
2023-04-15T04:13:09.319Z,99943.00
2023-04-15T04:15:37.876Z,99950.40
2023-04-15T04:18:06.904Z,99948.00
2023-04-15T04:20:35.622Z,99952.40
2023-04-15T04:23:04.163Z,99956.00
2023-04-15T04:25:33.526Z,99955.80
2023-04-15T04:28:02.134Z,99956.80
2023-04-15T04:30:30.644Z,99959.60
2023-04-15T04:32:59.607Z,99963.60
2023-04-15T04:35:28.216Z,99965.20
2023-04-15T04:37:56.916Z,99963.40
2023-04-15T04:40:25.592Z,99968.20
2023-04-15T04:42:54.673Z,99962.80
2023-04-15T04:45:23.903Z,99964.20
2023-04-15T04:47:52.513Z,99963.20
2023-04-15T04:50:21.364Z,99962.00
2023-04-15T04:52:49.841Z,99965.80
2023-04-15T04:55:18.727Z,99965.00
2023-04-15T04:57:47.729Z,99962.80
2023-04-15T05:00:16.528Z,99962.40
2023-04-15T05:02:45.948Z,99966.20
2023-04-15T05:05:15.445Z,99963.20
2023-04-15T05:07:44.011Z,99966.80
2023-04-15T05:10:12.734Z,99967.60
2023-04-15T05:12:41.381Z,99971.40
2023-04-15T05:15:11.252Z,99969.00
2023-04-15T05:17:39.899Z,99965.80
2023-04-15T05:20:09.937Z,99965.80
2023-04-15T05:22:38.488Z,99963.60
2023-04-15T05:25:08.886Z,99963.40
2023-04-15T05:27:37.399Z,99968.80
2023-04-15T05:30:13.272Z,99971.40
2023-04-15T05:32:42.872Z,99971.40
2023-04-15T05:35:12.767Z,99970.60
2023-04-15T05:37:41.872Z,99972.40
2023-04-15T05:40:11.139Z,99970.80
2023-04-15T05:42:39.654Z,99969.60
2023-04-15T05:45:09.601Z,99970.00
2023-04-15T05:47:38.802Z,99973.80
2023-04-15T05:50:09.073Z,99981.80
2023-04-15T05:52:37.696Z,99985.60
2023-04-15T05:55:07.172Z,99985.60
2023-04-15T05:57:35.873Z,99999.60
2023-04-15T06:00:06.201Z,99997.00
2023-04-15T06:02:38.550Z,100000.20
2023-04-15T06:05:10.102Z,100006.60
2023-04-15T06:07:39.326Z,100004.40
2023-04-15T06:10:08.754Z,100005.60
2023-04-15T06:12:37.414Z,100003.00
2023-04-15T06:15:07.234Z,100011.80
2023-04-15T06:17:35.738Z,100011.40
2023-04-15T06:20:05.428Z,100016.80
2023-04-15T06:22:34.007Z,100017.80
2023-04-15T06:25:02.695Z,100021.80
2023-04-15T06:27:31.382Z,100016.60
2023-04-15T06:30:00.068Z,100020.60
2023-04-15T06:32:28.887Z,100020.60
2023-04-15T06:34:57.588Z,100018.80
2023-04-15T06:37:26.535Z,100023.80
2023-04-15T06:39:55.231Z,100021.60
2023-04-15T06:42:24.219Z,100023.40
2023-04-15T06:44:52.902Z,100022.00
2023-04-15T06:47:22.007Z,100025.40
2023-04-15T06:49:51.227Z,100028.60
2023-04-15T06:52:19.780Z,100032.60
2023-04-15T06:54:48.577Z,100030.40
2023-04-15T06:57:17.360Z,100035.00
2023-04-15T06:59:46.399Z,100036.40
2023-04-15T07:02:15.122Z,100041.20
2023-04-15T07:04:43.991Z,100041.40
2023-04-15T07:07:14.288Z,100040.20
2023-04-15T07:09:44.914Z,100043.20
2023-04-15T07:12:13.883Z,100045.60
2023-04-15T07:14:44.534Z,100048.40
2023-04-15T07:17:14.478Z,100052.80
2023-04-15T07:19:45.476Z,100052.20
2023-04-15T07:22:15.005Z,100049.60
2023-04-15T07:24:44.226Z,100058.00
2023-04-15T07:27:12.761Z,100052.80
2023-04-15T07:29:43.243Z,100056.20
2023-04-15T07:32:14.399Z,100057.40
2023-04-15T07:34:45.378Z,100060.60
2023-04-15T07:37:17.530Z,100061.00
2023-04-15T07:39:46.854Z,100066.00
2023-04-15T07:42:17.070Z,100058.00
2023-04-15T07:44:45.972Z,100057.00
2023-04-15T07:47:15.914Z,100051.40
2023-04-15T07:49:45.493Z,100060.40
2023-04-15T07:52:16.743Z,100061.00
2023-04-15T07:54:46.039Z,100059.20
2023-04-15T07:57:14.623Z,100059.40
2023-04-15T07:59:44.373Z,100063.40
2023-04-15T08:02:13.410Z,100070.00
2023-04-15T08:04:42.942Z,100069.20
2023-04-15T08:07:12.182Z,100069.00
2023-04-15T08:09:40.862Z,100073.00
2023-04-15T08:12:12.986Z,100078.20
2023-04-15T08:14:41.680Z,100081.00
2023-04-15T08:17:10.668Z,100082.20
2023-04-15T08:19:40.935Z,100083.20
2023-04-15T08:22:10.661Z,100084.80
2023-04-15T08:24:47.593Z,100093.00
2023-04-15T08:27:16.287Z,100082.00
2023-04-15T08:29:45.910Z,100082.40
2023-04-15T08:32:15.214Z,100088.60
2023-04-15T08:34:44.011Z,100089.40
2023-04-15T08:37:12.906Z,100093.00
2023-04-15T08:39:41.445Z,100089.20
2023-04-15T08:42:19.634Z,100096.80
2023-04-15T08:44:49.114Z,100097.00
2023-04-15T08:47:20.996Z,100101.00
2023-04-15T08:49:54.114Z,100107.60
2023-04-15T08:52:23.002Z,100104.60
2023-04-15T08:54:53.241Z,100116.80
2023-04-15T08:57:22.055Z,100117.60
2023-04-15T08:59:51.068Z,100119.00
2023-04-15T09:02:20.084Z,100122.20
2023-04-15T09:04:49.003Z,100123.00
2023-04-15T09:07:18.198Z,100119.20
2023-04-15T09:09:46.885Z,100117.80
2023-04-15T09:12:17.285Z,100124.20
2023-04-15T09:14:49.716Z,100121.60
2023-04-15T09:17:25.033Z,100126.60
2023-04-15T09:20:15.012Z,100131.00
2023-04-15T09:22:46.693Z,100126.40
2023-04-15T09:25:32.767Z,100126.40
2023-04-15T09:28:04.188Z,100130.40
2023-04-15T09:30:32.978Z,100132.00
2023-04-15T09:33:08.515Z,100131.80
2023-04-15T09:35:37.469Z,100136.20
2023-04-15T09:38:11.166Z,100142.80
2023-04-15T09:40:43.311Z,100145.20
2023-04-15T09:43:14.711Z,100144.00
2023-04-15T09:45:51.565Z,100149.80
2023-04-15T09:48:27.403Z,100150.60
2023-04-15T09:50:59.616Z,100152.20
2023-04-15T09:53:31.268Z,100153.80
2023-04-15T09:56:02.636Z,100158.40
2023-04-15T09:58:35.246Z,100155.20
2023-04-15T10:01:06.497Z,100150.80
2023-04-15T10:03:39.491Z,100156.00
2023-04-15T10:06:08.588Z,100157.80
2023-04-15T10:08:37.477Z,100157.80
2023-04-15T10:11:07.197Z,100161.20
2023-04-15T10:13:37.593Z,100158.60
2023-04-15T10:16:11.555Z,100158.80
2023-04-15T10:18:45.242Z,100165.60
2023-04-15T10:21:18.676Z,100162.60
2023-04-15T10:23:48.048Z,100170.60
2023-04-15T10:26:17.999Z,100171.20
2023-04-15T10:28:48.510Z,100170.20
2023-04-15T10:31:18.660Z,100170.60
2023-04-15T10:33:48.925Z,100168.60
2023-04-15T10:36:20.327Z,100170.00
2023-04-15T10:38:48.960Z,100174.20
2023-04-15T10:41:31.479Z,100174.80
2023-04-15T10:44:00.414Z,100176.20
2023-04-15T10:46:46.865Z,100181.20
2023-04-15T10:49:25.483Z,100180.00
2023-04-15T10:51:59.390Z,100175.60
2023-04-15T10:54:27.775Z,100180.20
2023-04-15T10:57:03.067Z,100177.40
2023-04-15T10:59:33.164Z,100178.60
2023-04-15T11:02:05.541Z,100175.80
2023-04-15T11:05:00.416Z,100180.80
2023-04-15T11:07:45.171Z,100180.60
2023-04-15T11:10:26.295Z,100186.00
2023-04-15T11:13:06.609Z,100189.20
2023-04-15T11:15:46.604Z,100189.60
2023-04-15T11:18:28.665Z,100187.00
2023-04-15T11:21:01.475Z,100181.20
2023-04-15T11:23:35.260Z,100184.80
2023-04-15T11:26:10.004Z,100183.60
2023-04-15T11:28:42.111Z,100181.00
2023-04-15T11:31:16.578Z,100188.60
2023-04-15T11:34:01.853Z,100183.80
2023-04-15T11:36:32.331Z,100185.20
2023-04-15T11:39:01.168Z,100178.00
2023-04-15T11:41:30.165Z,100184.80
2023-04-15T11:43:58.846Z,100189.20
2023-04-15T11:46:32.420Z,100192.00
2023-04-15T11:49:01.956Z,100188.60
2023-04-15T11:51:34.944Z,100187.20
2023-04-15T11:54:04.299Z,100191.60
2023-04-15T11:56:33.260Z,100190.20
2023-04-15T11:59:02.461Z,100192.60
2023-04-15T12:01:47.082Z,100195.60
2023-04-15T12:04:24.545Z,100198.40
2023-04-15T12:06:54.308Z,100201.00
2023-04-15T12:09:23.091Z,100196.00
2023-04-15T12:11:55.876Z,100202.20
2023-04-15T12:14:33.058Z,100204.80
2023-04-15T12:17:08.165Z,100203.00
2023-04-15T12:19:37.911Z,100206.00
2023-04-15T12:22:12.747Z,100205.00
2023-04-15T12:24:44.542Z,100213.60
2023-04-15T12:27:16.904Z,100211.20
2023-04-15T12:29:46.768Z,100212.60
2023-04-15T12:32:21.555Z,100221.00
2023-04-15T12:34:56.984Z,100224.40
2023-04-15T12:37:26.776Z,100223.20
2023-04-15T12:39:55.666Z,100217.20
2023-04-15T12:42:26.153Z,100218.20
2023-04-15T12:44:55.847Z,100221.40
2023-04-15T12:47:24.433Z,100223.80
2023-04-15T12:49:54.001Z,100227.20
2023-04-15T12:52:22.586Z,100232.20
2023-04-15T12:54:51.477Z,100235.40
2023-04-15T12:57:20.264Z,100236.40
2023-04-15T12:59:49.260Z,100236.40
2023-04-15T13:02:18.039Z,100246.60
2023-04-15T13:04:46.879Z,100254.00
2023-04-15T13:07:15.938Z,100259.40
2023-04-15T13:09:45.049Z,100263.40
2023-04-15T13:12:14.843Z,100267.00
2023-04-15T13:14:43.743Z,100264.20
2023-04-15T13:17:12.319Z,100271.40
2023-04-15T13:19:40.916Z,100273.20
2023-04-15T13:22:09.495Z,100277.00
2023-04-15T13:24:39.545Z,100276.20
2023-04-15T13:27:08.612Z,100280.20
2023-04-15T13:29:38.441Z,100284.60
2023-04-15T13:32:07.818Z,100283.40
2023-04-15T13:34:36.816Z,100284.60
2023-04-15T13:37:09.818Z,100285.00
2023-04-15T13:39:39.951Z,100287.00
2023-04-15T13:42:10.401Z,100288.00
2023-04-15T13:44:39.367Z,100291.80
2023-04-15T13:47:08.036Z,100298.00
2023-04-15T13:49:36.716Z,100296.80
2023-04-15T13:52:06.025Z,100300.20
2023-04-15T13:54:37.531Z,100297.80
2023-04-15T13:57:08.647Z,100298.00
2023-04-15T13:59:37.199Z,100299.60
2023-04-15T14:02:05.936Z,100302.80
2023-04-15T14:04:34.785Z,100302.40
2023-04-15T14:07:05.349Z,100297.40
2023-04-15T14:09:35.446Z,100297.20
2023-04-15T14:12:05.138Z,100297.60
2023-04-15T14:14:33.622Z,100306.40
2023-04-15T14:17:03.739Z,100303.40
2023-04-15T14:19:33.406Z,100308.20
2023-04-15T14:22:02.135Z,100314.20
2023-04-15T14:24:30.821Z,100311.60
2023-04-15T14:26:59.823Z,100320.40
2023-04-15T14:29:29.008Z,100323.80
2023-04-15T14:32:04.526Z,100333.60
2023-04-15T14:34:41.334Z,100333.00
2023-04-15T14:37:09.933Z,100341.80
2023-04-15T14:39:38.612Z,100341.60
2023-04-15T14:42:07.408Z,100345.40
2023-04-15T14:44:36.267Z,100347.60
2023-04-15T14:47:05.088Z,100348.80
2023-04-15T14:49:33.877Z,100355.60
2023-04-15T14:52:02.867Z,100360.40
2023-04-15T14:54:31.659Z,100361.80
2023-04-15T14:57:00.140Z,100370.20
2023-04-15T14:59:28.722Z,100369.20
2023-04-15T15:01:57.496Z,100371.00
2023-04-15T15:04:26.287Z,100381.00
2023-04-15T15:06:55.402Z,100388.40
2023-04-15T15:09:24.293Z,100390.40
2023-04-15T15:11:53.718Z,100395.40
2023-04-15T15:14:22.566Z,100396.00
2023-04-15T15:16:51.577Z,100394.20
2023-04-15T15:19:20.166Z,100399.20
2023-04-15T15:21:48.749Z,100400.80
2023-04-15T15:24:17.340Z,100405.00
2023-04-15T15:26:46.032Z,100406.60
2023-04-15T15:29:15.117Z,100411.00
2023-04-15T15:31:43.651Z,100416.60
2023-04-15T15:34:12.283Z,100418.20
2023-04-15T15:36:41.179Z,100415.60
2023-04-15T15:39:11.399Z,100419.20
2023-04-15T15:41:40.087Z,100421.40
2023-04-15T15:44:09.081Z,100422.00
2023-04-15T15:46:38.118Z,100420.60
2023-04-15T15:49:07.070Z,100427.40
2023-04-15T15:51:36.371Z,100425.80
2023-04-15T15:54:05.166Z,100428.60
2023-04-15T15:56:38.576Z,100430.60
2023-04-15T15:59:07.340Z,100435.60
2023-04-15T16:01:37.694Z,100437.80
2023-04-15T16:04:07.710Z,100435.80
2023-04-15T16:06:36.930Z,100436.80
2023-04-15T16:09:05.894Z,100436.20
2023-04-15T16:11:34.845Z,100438.80
2023-04-15T16:14:04.827Z,100439.60
2023-04-15T16:16:33.405Z,100441.60
2023-04-15T16:19:02.211Z,100444.40
2023-04-15T16:21:31.881Z,100453.40
2023-04-15T16:24:00.768Z,100453.40
2023-04-15T16:26:29.377Z,100456.80
2023-04-15T16:28:58.036Z,100454.80
2023-04-15T16:31:26.646Z,100455.80
2023-04-15T16:33:55.518Z,100464.20
2023-04-15T16:36:24.098Z,100459.80
2023-04-15T16:38:53.504Z,100468.00
2023-04-15T16:41:22.085Z,100468.40
2023-04-15T16:43:50.874Z,100470.60
2023-04-15T16:46:19.565Z,100471.40
2023-04-15T16:48:48.261Z,100481.40
2023-04-15T16:51:16.940Z,100471.00
2023-04-15T16:53:45.825Z,100472.80
2023-04-15T16:56:14.418Z,100478.60
2023-04-15T16:58:43.109Z,100484.20
2023-04-15T17:01:12.300Z,100489.20
2023-04-15T17:03:41.159Z,100488.20
2023-04-15T17:06:09.875Z,100496.00
2023-04-15T17:08:38.562Z,100492.40
2023-04-15T17:11:07.357Z,100501.80
2023-04-15T17:13:36.547Z,100508.60
2023-04-15T17:16:05.970Z,100509.60
2023-04-15T17:18:34.741Z,100512.00
2023-04-15T17:21:03.646Z,100516.40
2023-04-15T17:23:32.318Z,100516.20
2023-04-15T17:26:01.006Z,100519.80
2023-04-15T17:28:29.587Z,100522.60
2023-04-15T17:30:58.322Z,100522.60
2023-04-15T17:34:00.575Z,100524.80
2023-04-15T17:36:16.453Z,100531.20
2023-04-15T17:38:45.847Z,100525.60
2023-04-15T17:41:14.837Z,100533.00
2023-04-15T17:43:43.539Z,100539.40
2023-04-15T17:46:13.766Z,100541.40
2023-04-15T17:48:42.843Z,100546.60
2023-04-15T17:51:13.062Z,100552.60
2023-04-15T17:53:42.069Z,100552.20
2023-04-15T17:56:10.958Z,100554.20
2023-04-15T17:58:39.740Z,100558.00
2023-04-15T18:01:08.222Z,100563.40
2023-04-15T18:03:37.121Z,100565.80
2023-04-15T18:06:06.618Z,100568.60
2023-04-15T18:08:35.102Z,100573.60
2023-04-15T18:11:03.995Z,100574.60
2023-04-15T18:13:32.679Z,100580.40
2023-04-15T18:16:01.550Z,100586.80
2023-04-15T18:18:30.563Z,100593.20
2023-04-15T18:20:59.153Z,100595.60
2023-04-15T18:23:27.837Z,100603.80
2023-04-15T18:25:58.400Z,100603.00
2023-04-15T18:28:27.053Z,100603.80
2023-04-15T18:30:57.526Z,100607.80
2023-04-15T18:33:28.891Z,100610.00
2023-04-15T18:35:59.564Z,100612.60
2023-04-15T18:38:28.664Z,100619.20
2023-04-15T18:40:57.273Z,100619.40
2023-04-15T18:43:25.936Z,100627.40
2023-04-15T18:45:55.288Z,100626.00
2023-04-15T18:48:24.050Z,100630.40
2023-04-15T18:50:54.341Z,100635.60
2023-04-15T18:53:23.932Z,100638.20
2023-04-15T18:55:54.607Z,100643.40
2023-04-15T18:58:23.366Z,100645.40
2023-04-15T19:00:51.985Z,100649.60
2023-04-15T19:03:22.036Z,100651.80
2023-04-15T19:05:50.976Z,100651.60
2023-04-15T19:08:20.075Z,100653.60
2023-04-15T19:10:48.668Z,100656.00
2023-04-15T19:13:18.727Z,100658.40
2023-04-15T19:15:47.570Z,100663.40
2023-04-15T19:18:17.671Z,100664.60
2023-04-15T19:20:48.153Z,100666.00
2023-04-15T19:23:17.349Z,100668.80
2023-04-15T19:25:47.037Z,100675.20
2023-04-15T19:28:15.923Z,100675.80
2023-04-15T19:30:45.607Z,100678.20
2023-04-15T19:33:14.416Z,100680.60
2023-04-15T19:35:43.309Z,100679.40
2023-04-15T19:38:11.992Z,100685.00
2023-04-15T19:40:40.786Z,100685.80
2023-04-15T19:43:10.909Z,100685.00
2023-04-15T19:45:40.419Z,100687.60
2023-04-15T19:48:09.513Z,100689.60
2023-04-15T19:50:38.098Z,100692.20
2023-04-15T19:53:07.194Z,100687.80
2023-04-15T19:55:36.293Z,100690.00
2023-04-15T19:58:05.691Z,100691.80
2023-04-15T20:00:34.417Z,100688.20
2023-04-15T20:03:03.087Z,100697.00
2023-04-15T20:05:32.170Z,100694.80
2023-04-15T20:08:01.936Z,100696.80
2023-04-15T20:10:32.581Z,100698.00
2023-04-15T20:13:01.498Z,100701.20
2023-04-15T20:15:31.966Z,100703.80
2023-04-15T20:18:00.620Z,100703.60
2023-04-15T20:20:29.400Z,100704.20
2023-04-15T20:22:59.007Z,100710.40
2023-04-15T20:25:27.859Z,100710.40
2023-04-15T20:28:00.421Z,100712.00
2023-04-15T20:30:30.202Z,100721.00
2023-04-15T20:32:59.154Z,100715.40
2023-04-15T20:35:31.126Z,100724.80
2023-04-15T20:38:00.387Z,100727.40
2023-04-15T20:40:30.172Z,100727.40
2023-04-15T20:42:59.150Z,100727.20
2023-04-15T20:45:29.074Z,100729.20
2023-04-15T20:47:58.050Z,100729.20
2023-04-15T20:50:27.993Z,100732.20
2023-04-15T20:52:57.076Z,100726.00
2023-04-15T20:55:28.380Z,100732.60
2023-04-15T20:57:59.682Z,100733.60
2023-04-15T21:00:28.386Z,100739.60
2023-04-15T21:02:57.229Z,100742.20
2023-04-15T21:05:26.050Z,100745.20
2023-04-15T21:07:54.637Z,100743.60
2023-04-15T21:10:23.323Z,100746.20
2023-04-15T21:12:52.421Z,100747.80
2023-04-15T21:15:21.000Z,100743.60
2023-04-15T21:17:49.638Z,100748.60
2023-04-15T21:20:18.615Z,100752.00
2023-04-15T21:22:47.057Z,100751.80
2023-04-15T21:25:15.648Z,100754.20
2023-04-15T21:27:44.224Z,100753.60
2023-04-15T21:30:14.756Z,100755.60
2023-04-15T21:32:43.893Z,100756.60
2023-04-15T21:35:13.047Z,100759.80
2023-04-15T21:37:41.745Z,100766.80
2023-04-15T21:40:12.008Z,100769.00
2023-04-15T21:42:42.181Z,100773.80
2023-04-15T21:45:11.543Z,100775.00
2023-04-15T21:48:00.925Z,100774.00
2023-04-15T21:50:28.824Z,100772.00
2023-04-15T21:52:57.520Z,100771.40
2023-04-15T21:55:26.304Z,100776.20
2023-04-15T21:57:54.882Z,100774.20
2023-04-15T22:00:24.433Z,100779.80
2023-04-15T22:02:53.122Z,100782.80
2023-04-15T22:05:22.174Z,100784.00
2023-04-15T22:07:50.766Z,100785.20
2023-04-15T22:10:21.079Z,100789.60
2023-04-15T22:12:49.697Z,100795.00
2023-04-15T22:15:18.352Z,100799.00
2023-04-15T22:17:47.407Z,100799.00
2023-04-15T22:20:16.569Z,100798.20
2023-04-15T22:22:45.135Z,100799.60
2023-04-15T22:25:14.305Z,100806.60
2023-04-15T22:27:42.809Z,100808.80
2023-04-15T22:30:12.584Z,100807.80
2023-04-15T22:32:41.473Z,100808.20
2023-04-15T22:35:10.221Z,100812.00
2023-04-15T22:37:39.090Z,100813.60
2023-04-15T22:40:08.592Z,100817.00
2023-04-15T22:42:37.180Z,100820.80
2023-04-15T22:45:07.159Z,100825.40
2023-04-15T22:47:35.816Z,100824.20
2023-04-15T22:50:06.811Z,100822.20
2023-04-15T22:52:35.724Z,100829.20
2023-04-15T22:55:05.591Z,100829.80
2023-04-15T22:57:34.113Z,100835.40
2023-04-15T23:00:02.697Z,100835.60
2023-04-15T23:02:31.289Z,100834.00
2023-04-15T23:05:01.343Z,100836.80
2023-04-15T23:07:32.752Z,100838.00
2023-04-15T23:10:01.647Z,100839.40
2023-04-15T23:12:30.331Z,100846.40
2023-04-15T23:14:59.013Z,100848.80
2023-04-15T23:17:27.735Z,100848.40
2023-04-15T23:19:56.498Z,100842.60
2023-04-15T23:22:24.978Z,100848.00
2023-04-15T23:24:53.771Z,100849.40
2023-04-15T23:27:23.172Z,100852.40
2023-04-15T23:29:51.769Z,100856.60
2023-04-15T23:32:21.014Z,100853.60
2023-04-15T23:34:50.256Z,100855.00
2023-04-15T23:37:19.056Z,100855.00
2023-04-15T23:39:47.623Z,100854.20
2023-04-15T23:42:16.313Z,100851.40
2023-04-15T23:44:45.129Z,100853.60
2023-04-15T23:47:13.744Z,100854.20
2023-04-15T23:49:42.408Z,100855.60
2023-04-15T23:52:11.061Z,100853.40
2023-04-15T23:54:40.274Z,100855.40
2023-04-15T23:57:08.852Z,100864.40
2023-04-15T23:59:37.328Z,100862.40
